createdAt,value
2022-08-26T00:01:29.184Z,4.50
2022-08-26T00:03:58.277Z,4.28
2022-08-26T00:06:25.830Z,4.47
2022-08-26T00:08:52.905Z,3.40
2022-08-26T00:11:26.388Z,4.35
2022-08-26T00:13:53.912Z,3.45
2022-08-26T00:16:20.770Z,3.92
2022-08-26T00:18:47.590Z,4.03
2022-08-26T00:21:15.819Z,3.85
2022-08-26T00:23:42.892Z,3.85
2022-08-26T00:26:09.652Z,3.47
2022-08-26T00:28:37.993Z,3.50
2022-08-26T00:31:07.757Z,3.65
2022-08-26T00:33:38.192Z,3.45
2022-08-26T00:36:05.695Z,4.03
2022-08-26T00:38:34.987Z,4.10
2022-08-26T00:41:05.729Z,4.38
2022-08-26T00:43:47.144Z,3.33
2022-08-26T00:46:18.907Z,4.35
2022-08-26T00:48:49.239Z,3.58
2022-08-26T00:51:18.974Z,3.40
2022-08-26T00:53:50.631Z,3.53
2022-08-26T00:56:27.655Z,3.83
2022-08-26T00:58:58.425Z,3.67
2022-08-26T01:01:25.666Z,3.72
2022-08-26T01:03:53.545Z,3.70
2022-08-26T01:06:23.264Z,4.43
2022-08-26T01:08:52.022Z,3.67
2022-08-26T01:11:19.501Z,3.88
2022-08-26T01:13:46.709Z,4.00
2022-08-26T01:16:15.359Z,3.58
2022-08-26T01:18:43.903Z,3.67
2022-08-26T01:21:17.713Z,4.60
2022-08-26T01:23:49.423Z,3.95
2022-08-26T01:26:20.024Z,4.55
2022-08-26T01:28:51.468Z,4.45
2022-08-26T01:31:25.432Z,4.22
2022-08-26T01:34:00.585Z,4.85
2022-08-26T01:36:27.509Z,4.25
2022-08-26T01:38:55.729Z,4.28
2022-08-26T01:41:27.206Z,4.45
2022-08-26T01:43:57.952Z,4.50
2022-08-26T01:46:27.951Z,4.20
2022-08-26T01:48:58.614Z,4.57
2022-08-26T01:51:26.973Z,3.63
2022-08-26T01:53:55.529Z,4.63
2022-08-26T01:56:23.606Z,4.25
2022-08-26T01:58:54.108Z,3.47
2022-08-26T02:01:22.303Z,4.38
2022-08-26T02:03:58.226Z,4.55
2022-08-26T02:06:25.132Z,3.80
2022-08-26T02:08:56.134Z,3.85
2022-08-26T02:11:23.046Z,3.90
2022-08-26T02:13:54.481Z,3.63
2022-08-26T02:16:24.459Z,3.90
2022-08-26T02:18:53.511Z,3.30
2022-08-26T02:21:20.652Z,3.90
2022-08-26T02:23:47.553Z,3.92
2022-08-26T02:26:19.353Z,3.90
2022-08-26T02:28:55.575Z,4.47
2022-08-26T02:31:22.705Z,4.22
2022-08-26T02:33:49.638Z,4.30
2022-08-26T02:36:19.865Z,4.65
2022-08-26T02:38:46.883Z,5.38
2022-08-26T02:41:16.168Z,4.05
2022-08-26T02:43:44.957Z,3.92
2022-08-26T02:46:11.805Z,4.45
2022-08-26T02:48:48.200Z,4.22
2022-08-26T02:51:15.431Z,3.85
2022-08-26T02:53:42.183Z,4.45
2022-08-26T02:56:09.827Z,3.92
2022-08-26T02:58:37.971Z,4.60
2022-08-26T03:01:05.408Z,3.60
2022-08-26T03:03:33.533Z,4.07
2022-08-26T03:06:00.354Z,3.75
2022-08-26T03:08:27.134Z,3.47
2022-08-26T03:10:54.170Z,3.85
2022-08-26T03:13:20.962Z,3.17
2022-08-26T03:15:49.182Z,4.63
2022-08-26T03:18:16.019Z,3.88
2022-08-26T03:20:42.794Z,4.82
2022-08-26T03:23:10.940Z,4.10
2022-08-26T03:25:37.737Z,4.43
2022-08-26T03:28:04.897Z,3.83
2022-08-26T03:30:31.722Z,4.07
2022-08-26T03:33:01.477Z,4.03
2022-08-26T03:35:29.818Z,4.00
2022-08-26T03:37:56.574Z,4.20
2022-08-26T03:40:24.305Z,4.05
2022-08-26T03:42:55.922Z,4.13
2022-08-26T03:45:22.752Z,3.88
2022-08-26T03:47:49.528Z,4.22
2022-08-26T03:50:22.934Z,4.95
2022-08-26T03:52:52.902Z,5.25
2022-08-26T03:55:23.626Z,4.65
2022-08-26T03:57:50.737Z,4.60
2022-08-26T04:00:19.075Z,4.00
2022-08-26T04:02:47.657Z,4.25
2022-08-26T04:05:18.372Z,4.80
2022-08-26T04:07:45.777Z,4.18
2022-08-26T04:10:14.970Z,3.78
2022-08-26T04:12:46.172Z,3.75
2022-08-26T04:15:16.336Z,3.90
2022-08-26T04:17:45.268Z,5.53
2022-08-26T04:20:12.997Z,4.97
2022-08-26T04:22:44.782Z,4.43
2022-08-26T04:25:12.418Z,4.60
2022-08-26T04:27:39.240Z,3.85
2022-08-26T04:30:08.919Z,4.22
2022-08-26T04:32:36.671Z,4.38
2022-08-26T04:35:04.605Z,4.07
2022-08-26T04:37:31.974Z,4.90
2022-08-26T04:40:01.095Z,4.57
2022-08-26T04:42:28.078Z,5.00
2022-08-26T04:44:54.957Z,5.15
2022-08-26T04:47:21.763Z,5.88
2022-08-26T04:49:48.501Z,4.93
2022-08-26T04:52:15.284Z,4.63
2022-08-26T04:54:42.959Z,4.43
2022-08-26T04:57:12.159Z,4.20
2022-08-26T04:59:44.886Z,4.68
2022-08-26T05:02:12.966Z,4.93
2022-08-26T05:04:39.790Z,4.65
2022-08-26T05:07:07.408Z,4.28
2022-08-26T05:09:34.386Z,4.45
2022-08-26T05:12:01.819Z,3.83
2022-08-26T05:14:32.211Z,4.35
2022-08-26T05:17:00.721Z,4.20
2022-08-26T05:19:29.519Z,4.25
2022-08-26T05:21:56.258Z,4.97
2022-08-26T05:24:23.210Z,4.50
2022-08-26T05:26:49.998Z,5.07
2022-08-26T05:29:16.960Z,4.22
2022-08-26T05:31:45.282Z,4.50
2022-08-26T05:34:12.025Z,5.40
2022-08-26T05:36:39.018Z,3.83
2022-08-26T05:39:06.569Z,4.50
2022-08-26T05:41:36.422Z,3.42
2022-08-26T05:44:05.472Z,4.45
2022-08-26T05:46:33.092Z,4.03
2022-08-26T05:49:04.689Z,4.25
2022-08-26T05:51:34.181Z,3.90
2022-08-26T05:54:02.476Z,4.90
2022-08-26T05:56:30.635Z,4.65
2022-08-26T05:58:58.594Z,4.00
2022-08-26T06:01:28.244Z,4.78
2022-08-26T06:04:02.153Z,4.85
2022-08-26T06:06:30.606Z,6.25
2022-08-26T06:08:59.034Z,5.50
2022-08-26T06:11:27.747Z,5.32
2022-08-26T06:13:58.919Z,4.47
2022-08-26T06:16:28.984Z,5.32
2022-08-26T06:18:55.899Z,5.22
2022-08-26T06:21:26.481Z,4.15
2022-08-26T06:23:56.990Z,4.88
2022-08-26T06:26:25.938Z,5.78
2022-08-26T06:28:52.922Z,4.88
2022-08-26T06:31:19.975Z,5.25
2022-08-26T06:33:46.923Z,4.38
2022-08-26T06:36:17.439Z,5.82
2022-08-26T06:38:47.610Z,5.90
2022-08-26T06:41:14.859Z,7.13
2022-08-26T06:43:41.638Z,6.78
2022-08-26T06:46:10.945Z,6.07
2022-08-26T06:48:39.214Z,6.72
2022-08-26T06:51:08.343Z,6.07
2022-08-26T06:53:35.319Z,6.10
2022-08-26T06:56:05.740Z,6.57
2022-08-26T06:58:33.009Z,5.85
2022-08-26T07:01:03.707Z,5.82
2022-08-26T07:03:39.791Z,6.07
2022-08-26T07:06:07.584Z,6.30
2022-08-26T07:08:34.319Z,4.97
2022-08-26T07:11:05.898Z,6.07
2022-08-26T07:13:32.779Z,6.00
2022-08-26T07:16:02.900Z,5.57
2022-08-26T07:18:30.042Z,6.68
2022-08-26T07:20:56.901Z,5.78
2022-08-26T07:23:23.705Z,6.15
2022-08-26T07:25:51.268Z,6.45
2022-08-26T07:28:19.431Z,6.78
2022-08-26T07:30:46.228Z,6.50
2022-08-26T07:33:13.146Z,5.22
2022-08-26T07:35:39.913Z,6.10
2022-08-26T07:38:07.050Z,5.97
2022-08-26T07:40:34.041Z,6.57
2022-08-26T07:43:01.011Z,6.60
2022-08-26T07:45:29.523Z,5.72
2022-08-26T07:47:56.501Z,5.50
2022-08-26T07:50:23.808Z,4.45
2022-08-26T07:53:10.601Z,5.78
2022-08-26T07:55:37.862Z,5.28
2022-08-26T07:58:05.200Z,5.03
2022-08-26T08:00:33.892Z,6.07
2022-08-26T08:03:01.176Z,5.35
2022-08-26T08:05:33.472Z,5.60
2022-08-26T08:08:27.010Z,5.35
2022-08-26T08:10:49.600Z,5.18
2022-08-26T08:13:16.677Z,6.10
2022-08-26T08:15:46.998Z,5.18
2022-08-26T08:18:17.115Z,5.45
2022-08-26T08:20:47.626Z,5.45
2022-08-26T08:23:21.598Z,5.15
2022-08-26T08:25:50.919Z,4.53
2022-08-26T08:28:17.709Z,4.88
2022-08-26T08:30:45.865Z,4.80
2022-08-26T08:33:12.617Z,3.53
2022-08-26T08:35:40.031Z,4.75
2022-08-26T08:38:06.854Z,3.08
2022-08-26T08:40:33.832Z,4.20
2022-08-26T08:43:05.194Z,4.82
2022-08-26T08:45:37.000Z,5.78
2022-08-26T08:48:13.230Z,5.03
2022-08-26T08:50:44.171Z,5.15
2022-08-26T08:53:16.134Z,5.13
2022-08-26T08:55:59.338Z,5.00
2022-08-26T08:58:35.517Z,4.32
2022-08-26T09:01:08.296Z,4.47
2022-08-26T09:06:13.139Z,3.95
2022-08-26T09:08:40.039Z,4.97
2022-08-26T09:11:08.166Z,4.15
2022-08-26T09:13:38.202Z,4.88
2022-08-26T09:16:13.094Z,4.10
2022-08-26T09:18:58.845Z,4.70
2022-08-26T09:21:26.489Z,4.72
2022-08-26T09:23:55.661Z,3.47
2022-08-26T09:26:29.107Z,4.05
2022-08-26T09:28:58.112Z,4.20
2022-08-26T09:31:27.680Z,4.13
2022-08-26T09:34:11.600Z,3.90
2022-08-26T09:36:41.386Z,3.40
2022-08-26T09:39:28.109Z,3.08
2022-08-26T09:42:04.590Z,3.47
2022-08-26T09:44:32.181Z,3.67
2022-08-26T09:47:04.150Z,3.15
2022-08-26T09:49:36.318Z,4.15
2022-08-26T09:52:14.379Z,3.15
2022-08-26T09:54:43.210Z,2.95
2022-08-26T09:57:24.712Z,3.55
2022-08-26T09:59:51.675Z,3.22
2022-08-26T10:02:38.728Z,3.45
2022-08-26T10:05:09.939Z,2.95
2022-08-26T10:07:43.524Z,3.13
2022-08-26T10:10:15.572Z,2.53
2022-08-26T10:12:50.381Z,2.35
2022-08-26T10:15:19.854Z,3.25
2022-08-26T10:17:55.448Z,3.40
2022-08-26T10:20:27.321Z,2.78
2022-08-26T10:22:59.653Z,2.40
2022-08-26T10:25:31.093Z,3.33
2022-08-26T10:28:06.126Z,4.00
2022-08-26T10:30:37.698Z,3.42
2022-08-26T10:33:07.417Z,3.25
2022-08-26T10:35:40.096Z,2.58
2022-08-26T10:38:11.759Z,3.63
2022-08-26T10:40:49.883Z,2.78
2022-08-26T10:43:21.716Z,3.83
2022-08-26T10:45:51.149Z,3.38
2022-08-26T10:48:24.350Z,3.95
2022-08-26T10:50:52.787Z,3.37
2022-08-26T10:53:28.548Z,3.75
2022-08-26T10:56:06.277Z,3.55
2022-08-26T10:58:55.822Z,3.00
2022-08-26T11:01:29.440Z,3.55
2022-08-26T11:04:06.829Z,3.10
2022-08-26T11:06:37.147Z,4.10
2022-08-26T11:09:06.328Z,3.33
2022-08-26T11:11:48.406Z,3.58
2022-08-26T11:14:44.639Z,3.47
2022-08-26T11:17:57.293Z,3.55
2022-08-26T11:20:36.721Z,3.85
2022-08-26T11:23:44.680Z,3.92
2022-08-26T11:26:35.638Z,3.90
2022-08-26T11:29:04.652Z,3.60
2022-08-26T11:31:55.447Z,3.25
2022-08-26T11:34:57.707Z,3.10
2022-08-26T11:37:32.313Z,4.00
2022-08-26T11:40:01.498Z,3.25
2022-08-26T11:42:35.583Z,3.67
2022-08-26T11:45:12.932Z,4.00
2022-08-26T11:47:39.766Z,3.08
2022-08-26T11:50:10.619Z,3.70
2022-08-26T11:52:37.682Z,3.92
2022-08-26T11:55:07.554Z,5.53
2022-08-26T11:57:40.489Z,3.88
2022-08-26T12:00:10.647Z,4.00
2022-08-26T12:02:40.654Z,3.47
2022-08-26T12:05:09.182Z,3.15
2022-08-26T12:07:35.970Z,3.65
2022-08-26T12:10:05.855Z,3.72
2022-08-26T12:12:36.115Z,4.75
2022-08-26T12:15:09.008Z,3.03
2022-08-26T12:17:36.390Z,3.58
2022-08-26T12:20:05.310Z,2.92
2022-08-26T12:22:34.261Z,2.92
2022-08-26T12:25:04.714Z,3.22
2022-08-26T12:27:33.252Z,3.03
2022-08-26T12:30:06.902Z,3.35
2022-08-26T12:32:36.390Z,2.72
2022-08-26T12:37:42.676Z,3.20
2022-08-26T12:40:34.881Z,3.45
2022-08-26T12:43:04.123Z,3.28
2022-08-26T12:45:32.903Z,2.72
2022-08-26T12:48:02.421Z,2.80
2022-08-26T12:50:32.344Z,2.92
2022-08-26T12:53:03.297Z,2.40
2022-08-26T12:55:39.966Z,2.65
2022-08-26T12:58:21.625Z,2.55
2022-08-26T13:00:49.638Z,2.75
2022-08-26T13:03:46.802Z,3.53
2022-08-26T13:06:25.641Z,2.63
2022-08-26T13:08:55.453Z,3.55
2022-08-26T13:11:25.037Z,2.63
2022-08-26T13:13:55.125Z,2.92
2022-08-26T13:16:24.521Z,3.50
2022-08-26T13:18:53.614Z,3.33
2022-08-26T13:21:22.583Z,3.15
2022-08-26T13:23:50.329Z,2.60
2022-08-26T13:26:18.739Z,2.38
2022-08-26T13:28:45.822Z,3.75
2022-08-26T13:31:29.608Z,2.63
2022-08-26T13:33:56.954Z,3.55
2022-08-26T13:36:24.142Z,3.58
2022-08-26T13:38:52.033Z,3.88
2022-08-26T13:41:29.313Z,3.70
2022-08-26T13:43:56.838Z,3.88
2022-08-26T13:46:25.951Z,3.45
2022-08-26T13:48:52.787Z,3.08
2022-08-26T13:51:19.681Z,3.92
2022-08-26T13:53:46.463Z,3.88
2022-08-26T13:56:13.261Z,3.35
2022-08-26T13:58:41.371Z,3.35
2022-08-26T14:01:08.577Z,4.07
2022-08-26T14:03:35.964Z,3.55
2022-08-26T14:06:02.811Z,4.00
2022-08-26T14:08:30.014Z,3.50
2022-08-26T14:10:56.758Z,3.17
2022-08-26T14:13:23.492Z,3.40
2022-08-26T14:15:52.774Z,3.40
2022-08-26T14:18:25.529Z,3.83
2022-08-26T14:20:55.111Z,3.20
2022-08-26T14:23:22.066Z,2.85
2022-08-26T14:25:48.989Z,3.85
2022-08-26T14:28:15.912Z,3.75
2022-08-26T14:30:44.109Z,3.10
2022-08-26T14:33:14.162Z,3.85
2022-08-26T14:35:41.431Z,3.50
2022-08-26T14:38:14.829Z,3.10
2022-08-26T14:40:41.730Z,3.78
2022-08-26T14:43:08.480Z,3.03
2022-08-26T14:45:37.828Z,2.97
2022-08-26T14:48:04.685Z,3.17
2022-08-26T14:50:32.922Z,4.07
2022-08-26T14:52:59.945Z,3.20
2022-08-26T14:55:27.305Z,3.85
2022-08-26T14:57:54.117Z,5.03
2022-08-26T15:00:21.045Z,3.92
2022-08-26T15:02:48.032Z,3.25
2022-08-26T15:05:15.105Z,3.20
2022-08-26T15:07:43.308Z,3.22
2022-08-26T15:10:11.906Z,3.00
2022-08-26T15:12:38.706Z,3.00
2022-08-26T15:15:07.443Z,3.10
2022-08-26T15:17:34.792Z,4.15
2022-08-26T15:20:02.056Z,2.78
2022-08-26T15:22:29.917Z,3.25
2022-08-26T15:24:58.551Z,3.60
2022-08-26T15:27:25.349Z,3.47
2022-08-26T15:29:52.071Z,2.90
2022-08-26T15:32:19.104Z,2.47
2022-08-26T15:34:45.910Z,2.78
2022-08-26T15:37:12.702Z,4.07
2022-08-26T15:39:39.457Z,3.28
2022-08-26T15:42:07.784Z,3.05
2022-08-26T15:44:34.612Z,2.70
2022-08-26T15:47:01.398Z,3.10
2022-08-26T15:49:28.343Z,2.85
2022-08-26T15:51:55.194Z,2.67
2022-08-26T15:54:23.410Z,2.38
2022-08-26T15:56:50.784Z,3.65
2022-08-26T15:59:20.209Z,4.75
2022-08-26T16:01:47.191Z,2.33
2022-08-26T16:04:13.998Z,3.38
2022-08-26T16:06:41.887Z,2.95
2022-08-26T16:09:09.366Z,2.38
2022-08-26T16:11:36.160Z,2.47
2022-08-26T16:14:02.909Z,3.03
2022-08-26T16:16:31.093Z,2.60
2022-08-26T16:18:57.963Z,2.95
2022-08-26T16:21:26.565Z,3.50
2022-08-26T16:23:53.294Z,2.80
2022-08-26T16:26:23.144Z,3.10
2022-08-26T16:28:49.996Z,4.50
2022-08-26T16:31:17.268Z,2.90
2022-08-26T16:33:45.499Z,2.90
2022-08-26T16:36:12.994Z,2.15
2022-08-26T16:38:40.230Z,2.95
2022-08-26T16:41:07.968Z,4.25
2022-08-26T16:43:35.274Z,2.58
2022-08-26T16:46:04.631Z,4.60
2022-08-26T16:48:31.480Z,3.65
2022-08-26T16:50:59.572Z,2.95
2022-08-26T16:53:26.377Z,3.20
2022-08-26T16:55:53.096Z,2.95
2022-08-26T16:58:21.973Z,2.80
2022-08-26T17:00:49.543Z,3.55
2022-08-26T17:03:16.625Z,2.80
2022-08-26T17:05:43.400Z,3.50
2022-08-26T17:08:11.936Z,3.42
2022-08-26T17:10:39.080Z,3.30
2022-08-26T17:13:05.985Z,2.85
2022-08-26T17:15:32.836Z,3.28
2022-08-26T17:17:59.698Z,2.92
2022-08-26T17:20:26.736Z,3.88
2022-08-26T17:22:55.033Z,2.92
2022-08-26T17:25:25.427Z,3.00
2022-08-26T17:27:53.060Z,3.75
2022-08-26T17:30:20.796Z,3.63
2022-08-26T17:32:47.554Z,3.75
2022-08-26T17:35:15.593Z,2.95
2022-08-26T17:37:42.342Z,3.35
2022-08-26T17:40:13.936Z,4.18
2022-08-26T17:42:42.330Z,3.28
2022-08-26T17:45:10.217Z,3.75
2022-08-26T17:47:37.572Z,2.80
2022-08-26T17:50:06.034Z,2.35
2022-08-26T17:52:32.777Z,2.05
2022-08-26T17:54:59.541Z,2.17
2022-08-26T17:57:26.990Z,2.38
2022-08-26T17:59:55.140Z,1.77
2022-08-26T18:02:22.365Z,2.78
2022-08-26T18:04:49.231Z,1.90
2022-08-26T18:07:17.022Z,2.55
2022-08-26T18:09:43.886Z,2.33
2022-08-26T18:12:11.730Z,2.75
2022-08-26T18:14:38.762Z,2.25
2022-08-26T18:17:06.861Z,2.83
2022-08-26T18:19:33.683Z,2.38
2022-08-26T18:22:00.459Z,2.47
2022-08-26T18:24:27.313Z,2.45
2022-08-26T18:26:54.076Z,2.53
2022-08-26T18:29:20.940Z,2.38
2022-08-26T18:31:47.829Z,2.25
2022-08-26T18:34:15.916Z,1.95
2022-08-26T18:36:43.296Z,2.17
2022-08-26T18:39:11.574Z,2.50
2022-08-26T18:41:41.498Z,2.70
2022-08-26T18:44:12.940Z,2.35
2022-08-26T18:46:41.061Z,2.72
2022-08-26T18:49:08.116Z,2.97
2022-08-26T18:51:36.227Z,2.90
2022-08-26T18:54:05.304Z,2.15
2022-08-26T18:56:32.700Z,2.72
2022-08-26T18:58:59.899Z,2.22
2022-08-26T19:01:28.394Z,2.58
2022-08-26T19:03:55.372Z,2.97
2022-08-26T19:06:23.346Z,2.45
2022-08-26T19:08:51.552Z,3.15
2022-08-26T19:11:31.528Z,2.00
2022-08-26T19:14:00.062Z,2.00
2022-08-26T19:16:27.908Z,3.17
2022-08-26T19:18:55.635Z,2.45
2022-08-26T19:21:23.090Z,2.22
2022-08-26T19:23:51.560Z,2.38
2022-08-26T19:26:18.349Z,2.70
2022-08-26T19:28:45.137Z,3.03
2022-08-26T19:31:12.852Z,2.67
2022-08-26T19:33:41.417Z,1.95
2022-08-26T19:36:12.666Z,2.63
2022-08-26T19:38:41.590Z,2.50
2022-08-26T19:41:12.171Z,3.03
2022-08-26T19:43:39.032Z,2.45
2022-08-26T19:46:12.237Z,3.30
2022-08-26T19:48:39.112Z,2.83
2022-08-26T19:51:06.245Z,2.22
2022-08-26T19:53:33.014Z,2.58
2022-08-26T19:55:59.745Z,2.92
2022-08-26T19:58:27.870Z,2.85
2022-08-26T20:00:54.699Z,2.33
2022-08-26T20:03:21.537Z,2.80
2022-08-26T20:05:48.266Z,2.55
2022-08-26T20:08:22.136Z,2.67
2022-08-26T20:10:50.021Z,2.15
2022-08-26T20:13:17.426Z,2.10
2022-08-26T20:15:45.544Z,2.38
2022-08-26T20:18:12.279Z,2.25
2022-08-26T20:20:38.998Z,2.70
2022-08-26T20:23:05.807Z,2.00
2022-08-26T20:25:33.304Z,2.20
2022-08-26T20:28:00.639Z,2.35
2022-08-26T20:30:27.547Z,2.05
2022-08-26T20:32:56.014Z,2.03
2022-08-26T20:35:22.825Z,1.90
2022-08-26T20:37:49.948Z,2.20
2022-08-26T20:40:16.782Z,3.25
2022-08-26T20:42:43.590Z,2.58
2022-08-26T20:45:11.011Z,2.47
2022-08-26T20:47:37.842Z,2.35
2022-08-26T20:50:06.849Z,2.08
2022-08-26T20:52:33.588Z,1.92
2022-08-26T20:55:00.340Z,2.33
2022-08-26T20:57:27.130Z,2.40
2022-08-26T20:59:53.879Z,1.98
2022-08-26T21:02:20.613Z,2.00
2022-08-26T21:04:47.487Z,2.33
2022-08-26T21:07:15.732Z,2.25
2022-08-26T21:09:44.510Z,1.75
2022-08-26T21:12:11.250Z,2.30
2022-08-26T21:14:38.056Z,2.20
2022-08-26T21:17:04.879Z,2.20
2022-08-26T21:19:31.606Z,2.28
2022-08-26T21:21:58.351Z,2.30
2022-08-26T21:24:26.489Z,2.70
2022-08-26T21:26:53.373Z,2.67
2022-08-26T21:29:20.112Z,2.30
2022-08-26T21:31:47.168Z,1.88
2022-08-26T21:34:14.570Z,1.85
2022-08-26T21:36:41.358Z,2.20
2022-08-26T21:39:11.507Z,1.95
2022-08-26T21:41:41.239Z,1.80
2022-08-26T21:44:08.856Z,1.90
2022-08-26T21:46:35.814Z,1.90
2022-08-26T21:49:05.253Z,1.83
2022-08-26T21:51:35.013Z,1.80
2022-08-26T21:54:06.543Z,1.45
2022-08-26T21:56:39.319Z,1.95
2022-08-26T21:59:08.081Z,2.03
2022-08-26T22:01:35.884Z,1.63
2022-08-26T22:04:07.300Z,2.08
2022-08-26T22:06:39.244Z,2.10
2022-08-26T22:09:06.028Z,1.38
2022-08-26T22:11:32.829Z,1.73
2022-08-26T22:13:59.657Z,2.03
2022-08-26T22:16:27.954Z,2.00
2022-08-26T22:18:54.816Z,1.23
2022-08-26T22:21:23.694Z,1.45
2022-08-26T22:23:51.230Z,1.55
2022-08-26T22:26:26.012Z,1.30
2022-08-26T22:28:58.807Z,1.50
2022-08-26T22:31:37.875Z,1.95
2022-08-26T22:34:06.772Z,1.85
2022-08-26T22:36:33.547Z,1.92
2022-08-26T22:39:01.219Z,1.40
2022-08-26T22:41:27.973Z,1.73
2022-08-26T22:43:54.692Z,1.80
2022-08-26T22:46:23.970Z,1.60
2022-08-26T22:48:54.027Z,1.52
2022-08-26T22:51:21.727Z,2.03
2022-08-26T22:53:48.522Z,1.67
2022-08-26T22:56:15.456Z,1.27
2022-08-26T22:58:42.194Z,1.70
2022-08-26T23:01:09.103Z,1.50
2022-08-26T23:03:36.059Z,2.00
2022-08-26T23:06:06.908Z,1.92
2022-08-26T23:08:33.659Z,2.10
2022-08-26T23:11:00.420Z,1.52
2022-08-26T23:13:27.317Z,1.77
2022-08-26T23:16:00.940Z,1.85
2022-08-26T23:18:27.781Z,1.48
2022-08-26T23:20:54.686Z,1.60
2022-08-26T23:23:22.822Z,1.58
2022-08-26T23:25:49.826Z,1.95
2022-08-26T23:28:16.966Z,1.88
2022-08-26T23:30:43.708Z,1.85
2022-08-26T23:33:10.565Z,1.60
2022-08-26T23:35:37.344Z,1.60
2022-08-26T23:38:06.727Z,1.75
2022-08-26T23:40:38.232Z,1.63
2022-08-26T23:43:07.571Z,1.50
2022-08-26T23:45:35.402Z,1.92
2022-08-26T23:48:02.421Z,1.63
2022-08-26T23:50:30.991Z,1.98
2022-08-26T23:52:57.745Z,2.47
2022-08-26T23:55:24.515Z,1.70
2022-08-26T23:57:52.723Z,2.00
